Yellowknife Airport
CYZF : now visible

Airfield :











YOU CAN JOIN US ON...

 
LOGIN :

Register | Disclaimer

   EN    FR    IT 

 









Legend :    VFR   Marginal VFR   IFR   Intensive IFR   Very Intensive IFR
Visi :
Ceiling :
>= 8 km
>= 3000ft
5 to 8 km
1000 to 3000 ft
1500m to 5 km
500 to 1000 ft
800 to 1500m
200 to 500 ft
< 800m
< 200 ft
Symbols :   Thunderstorms  Fog  Heavy snow  Heavy precipitations  Wind > 20 kt






- Airport Elevation : 675 ft
- IATA code : YZF


CYZF - Yellowknife

CURRENT METAR :
  • 122000Z CCA 16007KT 130V190 15SM BKN003 BKN020 11/11 A2972 RMK ST7SC1 SC TR VIS SE 2 SLP076

EXPIRED METARs :
  • 121950Z 14008KT 1 1/2SM R34/2600VP6000FT/D BR BKN004 BKN020 11/11 A2972 RMK ST7SC1 SC TR SLP076
  • 121936Z 16010KT 1SM R34/3000V6000FT/N BR OVC003 10/10 A2972 RMK ST8 SLP076
  • 121914Z 15010KT 3/4SM R34/2800VP6000FT/D BR VV001 10/10 A2972 RMK FG8 SLP075
  • 121903Z 15011KT 1 1/2SM BR OVC003 11/11 A2971 RMK ST8 SLP073
  • 121800Z 16009KT 10SM OVC004 09/09 A2970 RMK ST8 SLP071

TAF AMD TAF CYZF
Valid from the 12 at 19:00 until the 13 at 18:00 UTC


121907Z 1219/1318 15010KT 11/2SM BR BKN003
TEMPO 1219/1221 6SM BR SCT003 SCT020
FM122100 16010KT P6SM FEW008 SCT020
TEMPO 1221/1223 5SM BR SCT008 BKN020
FM122300 16010KT P6SM FEW025 SCT200
BECMG 1304/1306 10005KT
FM130900 10008KT P6SM BKN070
FM131500 11015KT P6SM SCT070 RMK NXT FCST BY 130000Z
CZEG FIR / North America



MET'MAP, your aeronautical weather chart ! - Copyright ORBIFLY December 2007 - Disclaimer

ORBIFLY MET'MAP TEAM :

Programming & Development : Alexandra Zaïnal
Concept & original design : Baudouin d'Aumeries
Assistance for programming : Marc-Olivier Méhu
Technical & hardware support : Manuel Goepfert

Contact : metmap@orbifly.com




SOURCES & CREDITS :

   NOAA       Earth
Advisory